createdAt,value
2023-01-30T00:01:32.548Z,17.10
2023-01-30T00:04:01.412Z,16.30
2023-01-30T00:06:29.766Z,13.80
2023-01-30T00:08:57.843Z,15.20
2023-01-30T00:11:26.462Z,16.50
2023-01-30T00:13:56.181Z,18.10
2023-01-30T00:16:24.454Z,20.60
2023-01-30T00:18:52.598Z,17.30
2023-01-30T00:21:21.201Z,30.00
2023-01-30T00:23:54.217Z,39.30
2023-01-30T00:26:22.530Z,36.00
2023-01-30T00:28:50.639Z,40.30
2023-01-30T00:31:21.687Z,26.40
2023-01-30T00:33:51.851Z,50.10
2023-01-30T00:36:19.944Z,22.00
2023-01-30T00:38:48.323Z,83.80
2023-01-30T00:41:19.021Z,138.00
2023-01-30T00:44:05.853Z,126.70
2023-01-30T00:46:53.560Z,39.50
2023-01-30T00:49:21.645Z,19.40
2023-01-30T00:51:50.070Z,17.60
2023-01-30T00:54:18.344Z,17.50
2023-01-30T00:56:46.635Z,17.10
2023-01-30T00:59:14.793Z,14.30
2023-01-30T01:01:42.863Z,20.10
2023-01-30T01:04:11.968Z,16.60
2023-01-30T01:06:44.453Z,21.50
2023-01-30T01:09:12.796Z,15.20
2023-01-30T01:11:41.916Z,20.00
2023-01-30T01:14:10.588Z,19.30
2023-01-30T01:16:40.507Z,17.80
2023-01-30T01:19:08.633Z,16.40
2023-01-30T01:21:37.049Z,15.70
2023-01-30T01:24:06.607Z,18.40
2023-01-30T01:26:35.465Z,19.50
2023-01-30T01:29:04.265Z,14.90
2023-01-30T01:31:33.140Z,16.70
2023-01-30T01:34:01.548Z,13.80
2023-01-30T01:36:52.296Z,12.80
2023-01-30T01:39:17.978Z,16.20
2023-01-30T01:41:46.098Z,16.40
2023-01-30T01:44:14.449Z,16.30
2023-01-30T01:46:52.126Z,21.90
2023-01-30T01:49:30.756Z,23.70
2023-01-30T01:52:09.885Z,26.90
2023-01-30T01:54:42.045Z,33.60
2023-01-30T01:57:16.382Z,35.30
2023-01-30T01:59:46.793Z,32.60
2023-01-30T02:02:17.324Z,29.80
2023-01-30T02:05:06.995Z,30.40
2023-01-30T02:07:37.727Z,20.40
2023-01-30T02:10:07.326Z,16.20
2023-01-30T02:12:35.791Z,18.70
2023-01-30T02:15:04.533Z,17.20
2023-01-30T02:17:36.280Z,16.10
2023-01-30T02:20:20.227Z,19.50
2023-01-30T02:23:28.019Z,16.00
2023-01-30T02:26:30.301Z,14.50
2023-01-30T02:29:07.268Z,13.90
2023-01-30T02:31:56.620Z,15.50
2023-01-30T02:34:50.002Z,13.90
2023-01-30T02:37:27.571Z,13.70
2023-01-30T02:40:53.636Z,16.00
2023-01-30T02:43:26.605Z,17.90
2023-01-30T02:45:57.554Z,13.70
2023-01-30T02:48:30.917Z,13.90
2023-01-30T02:51:01.504Z,17.60
2023-01-30T02:53:34.198Z,14.50
2023-01-30T02:56:02.816Z,16.10
2023-01-30T02:58:35.133Z,14.00
2023-01-30T03:01:28.712Z,16.70
2023-01-30T03:04:18.583Z,24.80
2023-01-30T03:06:57.379Z,18.10
2023-01-30T03:10:05.738Z,20.20
2023-01-30T03:12:53.930Z,19.90
2023-01-30T03:15:46.334Z,17.50
2023-01-30T03:18:14.406Z,13.20
2023-01-30T03:20:42.433Z,48.80
2023-01-30T03:23:21.752Z,43.50
2023-01-30T03:25:49.859Z,23.70
2023-01-30T03:28:19.796Z,16.00
2023-01-30T03:30:48.087Z,15.50
2023-01-30T03:33:16.281Z,16.40
2023-01-30T03:35:49.157Z,18.90
2023-01-30T03:38:18.384Z,17.80
2023-01-30T03:40:47.394Z,17.10
2023-01-30T03:43:16.335Z,17.90
2023-01-30T03:45:48.171Z,18.80
2023-01-30T03:48:17.122Z,21.60
2023-01-30T03:50:45.635Z,24.70
2023-01-30T03:53:15.280Z,20.50
2023-01-30T03:55:44.859Z,18.60
2023-01-30T03:58:12.987Z,21.10
2023-01-30T04:00:41.162Z,18.10
2023-01-30T04:03:09.748Z,17.20
2023-01-30T04:05:38.886Z,18.00
2023-01-30T04:08:08.646Z,17.50
2023-01-30T04:10:36.774Z,16.90
2023-01-30T04:13:05.754Z,21.30
2023-01-30T04:15:34.178Z,18.70
2023-01-30T04:18:21.004Z,15.80
2023-01-30T04:21:15.376Z,18.40
2023-01-30T04:23:43.480Z,20.10
2023-01-30T04:26:12.104Z,19.20
2023-01-30T04:28:41.142Z,21.10
2023-01-30T04:31:09.345Z,19.70
2023-01-30T04:33:40.365Z,17.90
2023-01-30T04:36:10.145Z,19.00
2023-01-30T04:38:38.538Z,18.80
2023-01-30T04:41:10.374Z,18.80
2023-01-30T04:43:41.452Z,21.20
2023-01-30T04:46:12.260Z,25.10
2023-01-30T04:48:41.685Z,18.90
2023-01-30T04:51:10.749Z,24.40
2023-01-30T04:53:39.371Z,19.90
2023-01-30T04:56:07.876Z,21.40
2023-01-30T04:58:36.135Z,21.40
2023-01-30T05:01:21.686Z,18.60
2023-01-30T05:03:53.788Z,21.10
2023-01-30T05:06:22.504Z,24.20
2023-01-30T05:08:55.380Z,22.20
2023-01-30T05:11:24.864Z,35.00
2023-01-30T05:13:53.142Z,33.90
2023-01-30T05:16:21.826Z,38.30
2023-01-30T05:18:50.572Z,42.70
2023-01-30T05:21:23.357Z,40.20
2023-01-30T05:23:53.022Z,37.30
2023-01-30T05:26:21.498Z,33.60
2023-01-30T05:28:56.720Z,27.60
2023-01-30T05:31:24.899Z,29.10
2023-01-30T05:33:53.235Z,25.40
2023-01-30T05:36:22.333Z,25.40
2023-01-30T05:38:50.551Z,29.20
2023-01-30T05:41:19.607Z,30.10
2023-01-30T05:43:51.146Z,27.80
2023-01-30T05:46:19.531Z,34.10
2023-01-30T05:48:47.818Z,21.40
2023-01-30T05:51:20.231Z,24.60
2023-01-30T05:53:52.788Z,23.90
2023-01-30T05:56:21.083Z,27.10
2023-01-30T05:58:56.363Z,26.00
2023-01-30T06:01:26.795Z,25.40
2023-01-30T06:03:55.129Z,24.10
2023-01-30T06:06:23.250Z,20.10
2023-01-30T06:08:55.622Z,23.10
2023-01-30T06:11:24.784Z,17.20
2023-01-30T06:13:53.036Z,18.70
2023-01-30T06:16:21.626Z,16.40
2023-01-30T06:18:50.478Z,19.20
2023-01-30T06:21:18.924Z,17.00
2023-01-30T06:23:47.530Z,18.90
2023-01-30T06:26:16.164Z,17.80
2023-01-30T06:28:45.058Z,18.60
2023-01-30T06:31:17.015Z,18.30
2023-01-30T06:33:46.787Z,15.30
2023-01-30T06:36:15.417Z,17.60
2023-01-30T06:38:44.145Z,18.60
2023-01-30T06:41:12.653Z,20.20
2023-01-30T06:43:44.494Z,16.10
2023-01-30T06:46:15.028Z,14.20
2023-01-30T06:48:46.407Z,15.90
2023-01-30T06:51:15.348Z,14.80
2023-01-30T06:53:44.226Z,16.80
2023-01-30T06:56:14.115Z,14.90
2023-01-30T06:58:43.159Z,15.50
2023-01-30T07:01:12.920Z,15.40
2023-01-30T07:03:41.339Z,13.80
2023-01-30T07:06:14.153Z,14.40
2023-01-30T07:08:45.320Z,15.00
2023-01-30T07:11:17.560Z,14.40
2023-01-30T07:13:48.447Z,15.40
2023-01-30T07:16:17.954Z,21.50
2023-01-30T07:18:53.558Z,22.40
2023-01-30T07:21:22.751Z,20.80
2023-01-30T07:23:52.057Z,14.60
2023-01-30T07:26:22.594Z,13.00
2023-01-30T07:28:53.051Z,12.60
2023-01-30T07:31:24.026Z,16.00
2023-01-30T07:36:39.965Z,12.60
2023-01-30T07:39:09.746Z,13.70
2023-01-30T07:41:38.943Z,19.00
2023-01-30T07:44:14.881Z,18.90
2023-01-30T07:46:45.218Z,17.00
2023-01-30T07:49:18.167Z,15.40
2023-01-30T07:51:47.688Z,13.90
2023-01-30T08:03:51.693Z,18.70
2023-01-30T08:06:49.638Z,19.10
2023-01-30T08:12:07.883Z,17.90
2023-01-30T08:24:01.466Z,19.20
2023-01-30T08:30:20.584Z,19.80
2023-01-30T08:33:05.994Z,23.90
2023-01-30T08:38:45.689Z,21.40
2023-01-30T08:44:34.043Z,24.20
2023-01-30T08:47:35.338Z,17.00
2023-01-30T08:53:11.218Z,20.10
2023-01-30T08:55:40.607Z,22.40
2023-01-30T08:58:16.602Z,26.00
2023-01-30T09:00:59.023Z,23.30
2023-01-30T09:03:27.504Z,22.50
2023-01-30T09:11:55.767Z,18.00
2023-01-30T09:14:38.728Z,21.20
2023-01-30T09:20:03.976Z,18.60
2023-01-30T09:25:24.694Z,16.60
2023-01-30T09:34:17.137Z,13.30
2023-01-30T09:39:47.273Z,26.30
2023-01-30T09:42:39.736Z,19.30
2023-01-30T09:45:43.180Z,19.60
2023-01-30T09:48:42.573Z,16.50
2023-01-30T09:51:29.975Z,22.70
2023-01-30T09:54:06.803Z,139.90
2023-01-30T10:00:14.379Z,24.30
2023-01-30T10:03:03.332Z,47.30
2023-01-30T10:06:00.862Z,19.20
2023-01-30T10:08:42.257Z,18.00
2023-01-30T10:11:29.949Z,16.40
2023-01-30T10:18:24.797Z,16.90
2023-01-30T10:21:15.805Z,16.40
2023-01-30T10:24:12.212Z,34.40
2023-01-30T10:26:54.902Z,19.90
2023-01-30T10:35:42.064Z,14.10
2023-01-30T11:01:58.774Z,18.10
2023-01-30T11:04:55.995Z,18.10
2023-01-30T11:07:40.394Z,40.50
2023-01-30T11:10:38.878Z,26.60
2023-01-30T11:13:32.600Z,37.10
2023-01-30T11:16:20.737Z,50.60
2023-01-30T11:22:13.354Z,17.50
2023-01-30T11:25:30.791Z,13.90
2023-01-30T11:32:25.923Z,15.40
2023-01-30T11:41:29.459Z,17.80
2023-01-30T11:44:13.817Z,178.10
2023-01-30T11:47:04.674Z,39.10
2023-01-30T11:58:40.031Z,16.90
2023-01-30T12:01:13.240Z,149.50
2023-01-30T12:09:39.851Z,20.80
2023-01-30T12:15:36.328Z,23.50
2023-01-30T12:18:16.068Z,25.20
2023-01-30T12:21:06.700Z,25.10
2023-01-30T12:28:47.374Z,16.30
2023-01-30T12:31:42.115Z,23.50
2023-01-30T12:34:18.001Z,17.80
2023-01-30T12:40:40.541Z,22.20
2023-01-30T12:43:28.409Z,19.50
2023-01-30T12:47:04.521Z,22.20
2023-01-30T12:50:30.642Z,20.80
2023-01-30T12:53:44.273Z,22.00
2023-01-30T12:56:51.747Z,22.90
2023-01-30T12:59:44.682Z,24.90
2023-01-30T13:10:21.188Z,28.10
2023-01-30T13:13:18.366Z,24.20
2023-01-30T13:15:59.550Z,22.10
2023-01-30T13:18:36.310Z,27.60
2023-01-30T13:21:14.547Z,24.20
2023-01-30T13:24:38.606Z,22.40
2023-01-30T13:30:24.493Z,24.40
2023-01-30T13:37:16.851Z,26.70
2023-01-30T13:43:12.461Z,25.30
2023-01-30T13:45:45.038Z,24.30
2023-01-30T13:54:43.297Z,28.60
2023-01-30T13:58:23.296Z,33.10
2023-01-30T14:00:55.462Z,27.70
2023-01-30T14:03:33.634Z,35.90
2023-01-30T14:09:21.570Z,34.50
2023-01-30T14:15:10.540Z,46.40
2023-01-30T14:27:29.109Z,64.10
2023-01-30T14:30:01.567Z,60.20
2023-01-30T14:36:07.585Z,57.40
2023-01-30T14:38:58.688Z,47.80
2023-01-30T15:05:28.285Z,49.10
2023-01-30T15:08:17.719Z,61.60
2023-01-30T15:10:53.161Z,69.00
2023-01-30T15:13:58.817Z,69.90
2023-01-30T15:16:36.241Z,72.50
2023-01-30T15:19:07.655Z,74.20
2023-01-30T15:21:54.898Z,85.20
2023-01-30T15:24:35.807Z,67.40
2023-01-30T15:27:12.836Z,54.00
2023-01-30T15:30:03.290Z,54.80
2023-01-30T15:32:32.224Z,47.80
2023-01-30T15:35:17.156Z,44.00
2023-01-30T15:37:53.365Z,43.50
2023-01-30T15:40:27.668Z,46.00
2023-01-30T15:43:14.480Z,41.00
2023-01-30T15:46:28.040Z,40.10
2023-01-30T15:49:37.496Z,36.60
2023-01-30T15:52:07.499Z,39.60
2023-01-30T15:54:35.790Z,37.10
2023-01-30T15:57:04.336Z,40.00
2023-01-30T15:59:40.156Z,39.20
2023-01-30T16:02:14.355Z,43.20
2023-01-30T16:04:43.075Z,48.60
2023-01-30T16:07:20.921Z,42.20
2023-01-30T16:10:07.224Z,41.60
2023-01-30T16:12:41.011Z,47.70
2023-01-30T16:15:20.311Z,42.30
2023-01-30T16:17:55.701Z,42.40
2023-01-30T16:20:23.982Z,53.70
2023-01-30T16:22:53.266Z,60.30
2023-01-30T16:25:24.423Z,50.30
2023-01-30T16:27:53.751Z,52.70
2023-01-30T16:30:26.951Z,47.90
2023-01-30T16:32:55.947Z,45.20
2023-01-30T16:35:27.077Z,49.90
2023-01-30T16:37:58.946Z,45.60
2023-01-30T16:40:33.338Z,41.00
2023-01-30T16:43:03.042Z,44.20
2023-01-30T16:45:34.711Z,43.00
2023-01-30T16:48:18.575Z,48.30
2023-01-30T16:50:48.646Z,43.10
2023-01-30T16:53:18.864Z,51.40
2023-01-30T16:56:02.844Z,63.30
2023-01-30T16:58:32.725Z,94.70
2023-01-30T17:01:02.233Z,125.50
2023-01-30T17:03:34.145Z,151.80
2023-01-30T17:06:12.722Z,143.00
2023-01-30T17:08:48.686Z,133.60
2023-01-30T17:11:37.913Z,104.60
2023-01-30T17:14:18.418Z,89.30
2023-01-30T17:17:01.019Z,85.70
2023-01-30T17:19:29.243Z,86.50
2023-01-30T17:21:58.576Z,101.00
2023-01-30T17:24:27.027Z,95.80
2023-01-30T17:27:00.415Z,92.00
2023-01-30T17:29:42.412Z,70.60
2023-01-30T17:32:12.414Z,56.40
2023-01-30T17:34:41.751Z,70.80
2023-01-30T17:37:15.931Z,87.70
2023-01-30T17:42:13.671Z,66.90
2023-01-30T17:44:42.217Z,73.80
2023-01-30T17:47:13.638Z,69.10
2023-01-30T17:49:45.159Z,76.90
2023-01-30T17:52:13.712Z,74.10
2023-01-30T17:54:42.357Z,68.90
2023-01-30T17:57:12.236Z,67.50
2023-01-30T17:59:41.647Z,63.70
2023-01-30T18:02:11.203Z,64.80
2023-01-30T18:04:40.927Z,62.90
2023-01-30T18:07:13.709Z,72.40
2023-01-30T18:09:45.391Z,63.10
2023-01-30T18:12:15.249Z,60.10
2023-01-30T18:14:45.257Z,61.70
2023-01-30T18:17:15.489Z,53.50
2023-01-30T18:19:45.685Z,54.90
2023-01-30T18:22:16.507Z,48.20
2023-01-30T18:24:47.590Z,53.60
2023-01-30T18:27:18.546Z,55.60
2023-01-30T18:29:49.057Z,54.10
2023-01-30T18:32:19.997Z,49.20
2023-01-30T18:34:51.441Z,44.50
2023-01-30T18:37:26.492Z,43.30
2023-01-30T18:39:59.817Z,38.70
2023-01-30T18:42:31.211Z,44.40
2023-01-30T18:45:02.666Z,38.80
2023-01-30T18:47:33.940Z,41.20
2023-01-30T18:50:05.436Z,41.00
2023-01-30T18:52:36.423Z,45.70
2023-01-30T18:55:08.270Z,40.70
2023-01-30T18:57:39.035Z,47.00
2023-01-30T19:00:09.541Z,43.40
2023-01-30T19:02:40.652Z,42.30
2023-01-30T19:05:11.320Z,40.60
2023-01-30T19:07:40.755Z,39.00
2023-01-30T19:10:11.896Z,36.70
2023-01-30T19:13:00.125Z,33.90
2023-01-30T19:15:29.844Z,32.20
2023-01-30T19:17:59.140Z,35.80
2023-01-30T19:20:28.363Z,34.30
2023-01-30T19:22:57.991Z,30.40
2023-01-30T19:25:27.417Z,34.80
2023-01-30T19:28:16.522Z,35.70
2023-01-30T19:30:45.434Z,32.40
2023-01-30T19:33:15.206Z,31.60
2023-01-30T19:35:44.472Z,33.00
2023-01-30T19:38:12.962Z,32.10
2023-01-30T19:40:45.297Z,29.50
2023-01-30T19:43:13.943Z,29.60
2023-01-30T19:45:42.751Z,31.30
2023-01-30T19:48:11.060Z,29.10
2023-01-30T19:50:39.211Z,30.70
2023-01-30T19:53:07.309Z,31.00
2023-01-30T19:55:35.925Z,32.20
2023-01-30T19:58:04.837Z,31.30
2023-01-30T20:00:33.081Z,30.90
2023-01-30T20:03:01.226Z,32.30
2023-01-30T20:05:31.346Z,33.10
2023-01-30T20:07:59.494Z,39.10
2023-01-30T20:10:27.890Z,34.20
2023-01-30T20:12:56.238Z,34.00
2023-01-30T20:15:24.380Z,37.00
2023-01-30T20:17:53.389Z,35.60
2023-01-30T20:20:21.810Z,30.90
2023-01-30T20:22:50.411Z,75.50
2023-01-30T20:25:18.852Z,74.10
2023-01-30T20:27:47.115Z,96.60
2023-01-30T20:30:16.229Z,70.30
2023-01-30T20:32:44.685Z,27.10
2023-01-30T20:35:13.698Z,21.90
2023-01-30T20:37:41.715Z,18.50
2023-01-30T20:40:10.957Z,22.00
2023-01-30T20:42:39.708Z,18.90
2023-01-30T20:45:08.418Z,16.30
2023-01-30T20:47:37.640Z,16.60
2023-01-30T20:50:05.896Z,17.40
2023-01-30T20:52:35.317Z,17.10
2023-01-30T20:55:03.903Z,17.10
2023-01-30T20:57:32.062Z,28.60
2023-01-30T21:00:00.216Z,22.90
2023-01-30T21:02:28.623Z,16.50
2023-01-30T21:04:56.787Z,15.20
2023-01-30T21:07:24.880Z,22.10
2023-01-30T21:09:52.950Z,26.40
2023-01-30T21:12:21.068Z,26.70
2023-01-30T21:14:51.313Z,17.80
2023-01-30T21:17:19.589Z,21.20
2023-01-30T21:19:47.642Z,21.50
2023-01-30T21:22:15.747Z,24.30
2023-01-30T21:24:43.792Z,25.30
2023-01-30T21:27:12.284Z,23.90
2023-01-30T21:29:41.355Z,28.80
2023-01-30T21:32:09.625Z,28.00
2023-01-30T21:34:38.108Z,25.00
2023-01-30T21:37:25.105Z,19.30
2023-01-30T21:40:11.635Z,24.00
2023-01-30T21:42:58.568Z,26.80
2023-01-30T21:45:26.740Z,20.10
2023-01-30T21:47:54.820Z,19.20
2023-01-30T21:50:22.882Z,20.20
2023-01-30T21:52:51.546Z,21.90
2023-01-30T21:55:20.606Z,22.90
2023-01-30T21:57:48.823Z,21.70
2023-01-30T22:00:17.085Z,15.80
2023-01-30T22:02:45.131Z,17.40
2023-01-30T22:05:13.340Z,16.90
2023-01-30T22:07:42.707Z,17.10
2023-01-30T22:10:11.224Z,14.50
2023-01-30T22:12:41.637Z,19.70
2023-01-30T22:15:10.047Z,16.30
2023-01-30T22:17:38.638Z,18.60
2023-01-30T22:20:10.035Z,18.30
2023-01-30T22:22:38.690Z,17.30
2023-01-30T22:25:11.711Z,17.20
2023-01-30T22:27:39.743Z,16.90
2023-01-30T22:30:08.741Z,17.60
2023-01-30T22:32:39.651Z,21.20
2023-01-30T22:35:08.477Z,16.00
2023-01-30T22:37:37.303Z,17.90
2023-01-30T22:40:06.510Z,17.00
2023-01-30T22:42:35.914Z,20.60
2023-01-30T22:45:04.945Z,18.10
2023-01-30T22:47:33.239Z,15.80
2023-01-30T22:50:01.533Z,14.10
2023-01-30T22:52:29.986Z,14.90
2023-01-30T22:54:58.259Z,15.50
2023-01-30T22:57:26.654Z,14.80
2023-01-30T22:59:54.812Z,17.00
2023-01-30T23:02:23.093Z,16.40
2023-01-30T23:04:52.089Z,13.90
2023-01-30T23:07:22.345Z,16.20
2023-01-30T23:09:50.899Z,16.20
2023-01-30T23:12:39.065Z,17.00
2023-01-30T23:15:07.947Z,22.60
2023-01-30T23:17:54.805Z,19.40
2023-01-30T23:20:24.745Z,19.40
2023-01-30T23:22:53.340Z,21.80
2023-01-30T23:25:22.185Z,20.80
2023-01-30T23:27:50.557Z,17.40
2023-01-30T23:30:18.702Z,15.70
2023-01-30T23:32:47.372Z,15.80
2023-01-30T23:35:15.753Z,20.10
2023-01-30T23:38:02.769Z,19.30
2023-01-30T23:40:32.066Z,18.60
2023-01-30T23:43:00.344Z,20.00
2023-01-30T23:45:29.663Z,18.80
2023-01-30T23:47:58.010Z,23.10
2023-01-30T23:50:26.400Z,22.80
2023-01-30T23:52:54.472Z,22.50
2023-01-30T23:55:22.956Z,20.00
2023-01-30T23:57:51.029Z,19.70
